Time;durP1;ratioP1;P1;durP2;ratioP2;P2;SDS_P1;SDS_P2;PMS_P1;PMS_P2;Temp;Humidity;BMP_temperature;BMP_pressure;BME280_temperature;BME280_humidity;BME280_pressure;Samples;Min_cycle;Max_cycle;Signal;HPM_P1;HPM_P2
2024/03/07 00:01:27;;;;;;;1.17;1.10;;;4.50;99.90;;;;;;5104499;27;20043;-85
2024/03/07 00:03:53;;;;;;;0.60;0.60;;;4.50;99.90;;;;;;5121053;27;20087;-81
2024/03/07 00:06:20;;;;;;;0.52;0.52;;;4.60;99.90;;;;;;5126174;27;20042;-82
2024/03/07 00:08:46;;;;;;;0.50;0.50;;;4.50;99.90;;;;;;5104955;27;20426;-81
2024/03/07 00:11:12;;;;;;;0.60;0.60;;;4.50;99.90;;;;;;5091897;27;20043;-82
2024/03/07 00:13:38;;;;;;;0.70;0.70;;;4.50;99.90;;;;;;5110240;27;20035;-83
2024/03/07 00:16:04;;;;;;;1.63;1.60;;;4.50;99.90;;;;;;5109595;27;20098;-81
2024/03/07 00:18:30;;;;;;;0.70;0.70;;;4.40;99.90;;;;;;5100918;27;20035;-83
2024/03/07 00:20:55;;;;;;;0.60;0.60;;;4.40;99.90;;;;;;5090810;28;20046;-84
2024/03/07 00:23:21;;;;;;;0.68;0.68;;;4.40;99.90;;;;;;5096714;27;20074;-82
2024/03/07 00:25:49;;;;;;;0.70;0.70;;;4.30;99.90;;;;;;5092702;27;20565;-84
2024/03/07 00:28:17;;;;;;;1.00;1.00;;;4.30;99.90;;;;;;5115447;28;20563;-80
2024/03/07 00:30:45;;;;;;;0.55;0.55;;;4.30;99.90;;;;;;5111637;27;20141;-82
2024/03/07 00:33:11;;;;;;;0.60;0.60;;;4.40;99.90;;;;;;5128024;27;20488;-83
2024/03/07 00:35:37;;;;;;;0.75;0.75;;;4.40;99.90;;;;;;5095911;27;20148;-81
2024/03/07 00:38:03;;;;;;;0.60;0.60;;;4.40;99.90;;;;;;5107404;27;20134;-81
2024/03/07 00:40:29;;;;;;;0.70;0.70;;;4.40;99.90;;;;;;5109279;28;20072;-82
2024/03/07 00:42:55;;;;;;;0.95;0.93;;;4.40;99.90;;;;;;5104085;27;20050;-81
2024/03/07 00:45:22;;;;;;;0.50;0.50;;;4.40;99.90;;;;;;5106249;28;20494;-80
2024/03/07 00:47:48;;;;;;;0.70;0.70;;;4.40;99.90;;;;;;5089283;28;20051;-82
2024/03/07 00:50:14;;;;;;;1.10;1.08;;;4.40;99.90;;;;;;5134225;27;20491;-81
2024/03/07 00:52:40;;;;;;;0.60;0.60;;;4.40;99.90;;;;;;5114740;28;20035;-81
2024/03/07 00:55:09;;;;;;;0.60;0.60;;;4.40;99.90;;;;;;5099189;27;20110;-80
2024/03/07 00:57:36;;;;;;;0.60;0.60;;;4.70;99.90;;;;;;5109429;28;20039;-83
2024/03/07 01:00:03;;;;;;;0.63;0.63;;;4.30;99.90;;;;;;5104285;27;20054;-83
2024/03/07 01:02:29;;;;;;;0.60;0.60;;;4.30;99.90;;;;;;5104973;28;20099;-82
2024/03/07 01:04:55;;;;;;;0.60;0.60;;;4.30;99.90;;;;;;5113570;28;20515;-83
2024/03/07 01:07:21;;;;;;;0.60;0.60;;;4.30;99.90;;;;;;5102357;27;20059;-84
2024/03/07 01:09:47;;;;;;;0.65;0.65;;;4.30;99.90;;;;;;5115454;28;20039;-83
2024/03/07 01:12:13;;;;;;;0.60;0.60;;;4.30;99.90;;;;;;5128547;27;20116;-83
2024/03/07 01:14:39;;;;;;;0.52;0.52;;;4.30;99.90;;;;;;5129321;27;20034;-81
2024/03/07 01:17:06;;;;;;;0.50;0.50;;;4.20;99.90;;;;;;5128184;27;20035;-82
2024/03/07 01:19:32;;;;;;;0.82;0.82;;;4.10;99.90;;;;;;5119993;27;20042;-82
2024/03/07 01:21:58;;;;;;;0.70;0.70;;;4.10;99.90;;;;;;5100044;28;20031;-83
2024/03/07 01:24:24;;;;;;;0.50;0.50;;;3.90;99.90;;;;;;5094321;27;20147;-82
2024/03/07 01:26:50;;;;;;;0.60;0.60;;;3.80;99.90;;;;;;5107156;27;20487;-83
2024/03/07 01:29:16;;;;;;;0.60;0.60;;;3.70;99.90;;;;;;5106173;28;20080;-85
2024/03/07 01:31:41;;;;;;;0.70;0.70;;;3.50;99.90;;;;;;5112657;27;20126;-84
2024/03/07 01:34:07;;;;;;;0.60;0.60;;;;;;;;;;5095391;28;20046;-83
2024/03/07 01:36:33;;;;;;;1.20;1.20;;;3.40;99.90;;;;;;5108757;28;20439;-84
2024/03/07 01:38:59;;;;;;;0.70;0.70;;;3.30;99.90;;;;;;5108757;28;20084;-84
2024/03/07 01:41:24;;;;;;;0.75;0.75;;;3.20;99.90;;;;;;5094945;27;20043;-82
2024/03/07 01:43:50;;;;;;;0.50;0.50;;;3.10;99.90;;;;;;5115825;27;20067;-82
2024/03/07 01:46:16;;;;;;;0.63;0.63;;;3.00;99.90;;;;;;5133006;27;20177;-81
2024/03/07 01:48:42;;;;;;;0.68;0.68;;;2.90;99.90;;;;;;5076432;27;20050;-82
2024/03/07 01:51:08;;;;;;;0.70;0.70;;;2.80;99.90;;;;;;5116889;27;20031;-82
2024/03/07 01:53:34;;;;;;;0.70;0.70;;;2.80;99.90;;;;;;5091118;27;20044;-80
2024/03/07 01:56:02;;;;;;;0.60;0.60;;;2.70;99.90;;;;;;5109949;27;20055;-85
2024/03/07 01:58:29;;;;;;;0.60;0.60;;;2.60;99.90;;;;;;5115020;27;20050;-85
2024/03/07 02:00:55;;;;;;;0.70;0.70;;;2.50;99.90;;;;;;5113396;27;20044;-83
2024/03/07 02:03:21;;;;;;;0.63;0.63;;;2.40;99.90;;;;;;5096170;27;20089;-82
2024/03/07 02:05:47;;;;;;;;;;;2.40;99.90;;;;;;5136163;27;20472;-81
2024/03/07 02:08:14;;;;;;;0.60;0.60;;;2.30;99.90;;;;;;5118826;27;19944;-82
2024/03/07 02:10:41;;;;;;;0.60;0.60;;;2.30;99.90;;;;;;5093755;28;20048;-83
2024/03/07 02:13:07;;;;;;;0.60;0.60;;;2.20;99.90;;;;;;5107253;27;20040;-82
2024/03/07 02:15:32;;;;;;;0.50;0.50;;;2.20;99.90;;;;;;5128049;27;20036;-82
2024/03/07 02:17:58;;;;;;;0.70;0.70;;;2.10;99.90;;;;;;5103208;27;20058;-80
2024/03/07 02:20:24;;;;;;;0.70;0.70;;;2.00;99.90;;;;;;5093152;28;20027;-81
2024/03/07 02:22:50;;;;;;;0.60;0.60;;;2.00;99.90;;;;;;5107415;27;20156;-81
2024/03/07 02:25:16;;;;;;;0.60;0.60;;;2.00;99.90;;;;;;5109224;27;20043;-80
2024/03/07 02:27:42;;;;;;;;;;;1.90;99.90;;;;;;5106803;27;20131;-80
2024/03/07 02:30:08;;;;;;;0.70;0.70;;;1.80;99.90;;;;;;5107664;27;19966;-81
2024/03/07 02:32:36;;;;;;;0.80;0.80;;;1.80;99.90;;;;;;5109598;27;20039;-82
2024/03/07 02:35:03;;;;;;;0.60;0.60;;;1.70;99.90;;;;;;5112246;27;20095;-80
2024/03/07 02:37:29;;;;;;;0.65;0.65;;;1.70;99.90;;;;;;5116086;27;20042;-81
2024/03/07 02:39:55;;;;;;;0.70;0.70;;;1.60;99.90;;;;;;5111869;27;20070;-82
2024/03/07 02:42:21;;;;;;;0.73;0.73;;;1.60;99.90;;;;;;5105659;27;20032;-81
2024/03/07 02:44:46;;;;;;;;;;;1.60;99.90;;;;;;5111651;27;20043;-80
2024/03/07 02:47:12;;;;;;;0.65;0.65;;;1.60;99.90;;;;;;5104399;27;20385;-80
2024/03/07 02:49:38;;;;;;;0.70;0.70;;;1.60;99.90;;;;;;5112356;27;20471;-83
2024/03/07 02:52:07;;;;;;;0.70;0.70;;;1.50;99.90;;;;;;5109097;27;20463;-82
2024/03/07 02:54:34;;;;;;;0.60;0.60;;;1.50;99.90;;;;;;5087465;28;20459;-79
2024/03/07 02:57:00;;;;;;;0.60;0.60;;;1.50;99.90;;;;;;5114738;27;20039;-81
2024/03/07 02:59:25;;;;;;;0.70;0.70;;;1.50;99.90;;;;;;5091022;28;20036;-80
2024/03/07 03:01:51;;;;;;;1.05;1.05;;;1.50;99.90;;;;;;5085889;28;20051;-82
2024/03/07 03:04:17;;;;;;;0.80;0.80;;;1.50;99.90;;;;;;5076000;27;20039;-83
2024/03/07 03:06:43;;;;;;;;;;;1.50;99.90;;;;;;5105644;27;20517;-79
2024/03/07 03:09:13;;;;;;;0.80;0.80;;;1.50;99.90;;;;;;5124946;27;20005;-80
2024/03/07 03:11:39;;;;;;;0.60;0.60;;;1.50;99.90;;;;;;5102270;27;20149;-81
2024/03/07 03:14:05;;;;;;;;;;;1.50;99.90;;;;;;5101735;27;20049;-80
2024/03/07 03:16:31;;;;;;;0.70;0.70;;;1.40;99.90;;;;;;5094123;27;19919;-80
2024/03/07 03:18:57;;;;;;;0.60;0.60;;;1.40;99.90;;;;;;5129633;27;20047;-80
2024/03/07 03:21:23;;;;;;;0.70;0.70;;;1.40;99.90;;;;;;5089490;27;20043;-80
2024/03/07 03:23:49;;;;;;;0.70;0.70;;;1.40;99.90;;;;;;5090263;27;20054;-81
2024/03/07 03:26:15;;;;;;;0.80;0.80;;;1.40;99.90;;;;;;5105712;27;20040;-81
2024/03/07 03:28:41;;;;;;;;;;;1.50;99.90;;;;;;5108275;27;20415;-80
2024/03/07 03:31:08;;;;;;;0.57;0.57;;;1.30;99.90;;;;;;5107097;27;20065;-79
2024/03/07 03:33:35;;;;;;;0.60;0.60;;;1.30;99.90;;;;;;5120593;27;20104;-81
2024/03/07 03:36:01;;;;;;;0.68;0.68;;;1.30;99.90;;;;;;5123652;27;20040;-79
2024/03/07 03:38:26;;;;;;;0.70;0.70;;;1.20;99.90;;;;;;5104208;27;20046;-79
2024/03/07 03:40:52;;;;;;;0.70;0.70;;;1.20;99.90;;;;;;5092239;27;20399;-81
2024/03/07 03:43:18;;;;;;;0.80;0.80;;;2.40;99.90;;;;;;5084942;27;20719;-81
2024/03/07 03:45:45;;;;;;;0.60;0.60;;;1.00;99.90;;;;;;5131789;27;20043;-81
2024/03/07 03:48:11;;;;;;;0.73;0.73;;;1.00;99.90;;;;;;5120669;27;20433;-83
2024/03/07 03:50:36;;;;;;;0.70;0.70;;;0.90;99.90;;;;;;5108251;27;20046;-82
2024/03/07 03:53:03;;;;;;;0.80;0.80;;;0.90;99.90;;;;;;5097954;27;20039;-81
2024/03/07 03:55:29;;;;;;;0.70;0.70;;;0.80;99.90;;;;;;5109702;27;20114;-81
2024/03/07 03:57:55;;;;;;;0.70;0.70;;;0.90;99.90;;;;;;5083018;27;20134;-81
2024/03/07 04:00:22;;;;;;;0.90;0.90;;;0.70;99.90;;;;;;5104336;28;20402;-81
2024/03/07 04:02:48;;;;;;;0.60;0.60;;;0.60;99.90;;;;;;5089630;27;20584;-82
2024/03/07 04:05:15;;;;;;;;;;;0.60;99.90;;;;;;5086236;27;20039;-80
2024/03/07 04:07:41;;;;;;;0.70;0.70;;;0.60;99.90;;;;;;5100115;27;19920;-81
2024/03/07 04:10:08;;;;;;;0.70;0.70;;;1.00;99.90;;;;;;5104899;27;20758;-80
2024/03/07 04:12:40;;;;;;;0.73;0.73;;;0.50;99.90;;;;;;5105693;27;20039;-79
2024/03/07 04:15:07;;;;;;;0.70;0.70;;;1.20;99.90;;;;;;5100282;28;20470;-79
2024/03/07 04:17:36;;;;;;;0.60;0.60;;;0.40;99.90;;;;;;5108018;27;20367;-79
2024/03/07 04:20:07;;;;;;;0.60;0.60;;;0.30;99.90;;;;;;5105594;27;20309;-80
2024/03/07 04:22:33;;;;;;;0.75;0.75;;;0.30;99.90;;;;;;5108483;27;20051;-79
2024/03/07 04:24:59;;;;;;;;;;;0.30;99.90;;;;;;5102688;28;20046;-80
2024/03/07 04:27:26;;;;;;;0.80;0.80;;;0.40;99.90;;;;;;5109253;28;20430;-82
2024/03/07 04:29:52;;;;;;;0.60;0.60;;;0.30;99.90;;;;;;5107407;28;20487;-80
2024/03/07 04:32:17;;;;;;;;;;;0.10;99.90;;;;;;5105323;28;20036;-82
2024/03/07 04:34:46;;;;;;;0.70;0.70;;;0.10;99.90;;;;;;5110439;28;19923;-83
2024/03/07 04:37:12;;;;;;;0.70;0.70;;;0.00;99.90;;;;;;5105218;28;20039;-81
2024/03/07 04:39:38;;;;;;;;;;;0.00;99.90;;;;;;5117816;28;20046;-82
2024/03/07 04:42:06;;;;;;;0.60;0.60;;;0.30;99.90;;;;;;5113012;28;19978;-83
2024/03/07 04:44:33;;;;;;;0.70;0.70;;;0.00;99.90;;;;;;5111050;28;20263;-81
2024/03/07 04:47:00;;;;;;;1.38;1.38;;;0.00;99.90;;;;;;5111991;28;20399;-82
2024/03/07 04:49:27;;;;;;;0.70;0.70;;;0.00;99.90;;;;;;5102995;28;20164;-83
2024/03/07 04:51:55;;;;;;;0.73;0.73;;;-0.10;99.90;;;;;;5107693;28;20106;-82
2024/03/07 04:54:22;;;;;;;0.60;0.60;;;0.50;99.90;;;;;;5101456;28;21172;-82
2024/03/07 04:56:49;;;;;;;0.70;0.70;;;0.10;99.90;;;;;;5102242;28;20110;-81
2024/03/07 04:59:16;;;;;;;0.70;0.70;;;0.20;99.90;;;;;;5104053;28;20071;-80
2024/03/07 05:01:43;;;;;;;0.70;0.70;;;-0.20;99.90;;;;;;5100338;28;20043;-81
2024/03/07 05:04:09;;;;;;;0.80;0.80;;;0.20;99.90;;;;;;5108104;28;20071;-81
2024/03/07 05:06:35;;;;;;;0.60;0.60;;;-0.20;99.90;;;;;;5107791;28;20101;-80
2024/03/07 05:09:04;;;;;;;;;;;0.80;99.90;;;;;;5092913;28;20047;-81
2024/03/07 05:11:31;;;;;;;0.80;0.80;;;-0.20;99.90;;;;;;5097402;28;19919;-80
2024/03/07 05:13:58;;;;;;;0.70;0.70;;;0.30;99.90;;;;;;5106242;28;20049;-80
2024/03/07 05:16:24;;;;;;;0.80;0.80;;;-0.20;99.90;;;;;;5132908;27;20336;-82
2024/03/07 05:18:51;;;;;;;0.70;0.70;;;0.70;99.90;;;;;;5095798;27;20075;-79
2024/03/07 05:24:05;;;;;;;0.70;0.70;;;-0.30;99.90;;;;;;5121974;27;20066;-84
2024/03/07 05:26:35;;;;;;;0.80;0.80;;;-0.30;99.90;;;;;;5123418;27;20039;-82
2024/03/07 05:29:07;;;;;;;0.80;0.80;;;-0.30;99.90;;;;;;5124582;27;20027;-81
2024/03/07 05:31:38;;;;;;;0.70;0.70;;;-0.30;99.90;;;;;;5128378;27;20031;-81
2024/03/07 05:34:08;;;;;;;8.57;5.15;;;0.30;99.90;;;;;;5093901;27;20046;-81
2024/03/07 05:36:43;;;;;;;0.60;0.60;;;-0.40;99.90;;;;;;5114462;27;20043;-82
2024/03/07 05:39:11;;;;;;;0.65;0.65;;;-0.40;99.90;;;;;;5139235;27;20401;-81
2024/03/07 05:41:37;;;;;;;0.70;0.70;;;0.80;99.90;;;;;;5099191;27;20035;-82
2024/03/07 05:44:04;;;;;;;0.70;0.70;;;-0.50;99.90;;;;;;5115104;27;20143;-83
2024/03/07 05:46:30;;;;;;;0.60;0.60;;;-0.40;99.90;;;;;;5133995;27;20039;-80
2024/03/07 05:48:56;;;;;;;0.65;0.65;;;0.00;99.90;;;;;;5113593;27;20071;-82
2024/03/07 05:51:23;;;;;;;;;;;-0.40;99.90;;;;;;5111705;27;20092;-81
2024/03/07 05:53:49;;;;;;;0.70;0.70;;;0.00;99.90;;;;;;5125853;27;19929;-81
2024/03/07 05:56:15;;;;;;;0.70;0.70;;;-0.30;99.90;;;;;;5132650;27;20039;-82
2024/03/07 05:58:41;;;;;;;0.80;0.80;;;1.50;99.90;;;;;;5079924;27;20378;-81
2024/03/07 06:01:08;;;;;;;0.80;0.80;;;-0.20;99.90;;;;;;5115032;27;20067;-76
2024/03/07 06:03:34;;;;;;;0.75;0.75;;;0.30;99.90;;;;;;5095258;27;20058;-79
2024/03/07 06:06:00;;;;;;;0.70;0.70;;;0.60;99.90;;;;;;5093294;27;20095;-80
2024/03/07 06:08:27;;;;;;;0.73;0.73;;;0.50;99.90;;;;;;5114349;27;20529;-82
2024/03/07 06:10:53;;;;;;;3.05;2.75;;;0.00;99.90;;;;;;5097609;27;20125;-80
2024/03/07 06:13:19;;;;;;;0.80;0.80;;;1.00;99.90;;;;;;5116932;27;20045;-79
2024/03/07 06:15:47;;;;;;;0.80;0.80;;;0.60;99.90;;;;;;5077586;27;20497;-80
2024/03/07 06:18:14;;;;;;;0.70;0.70;;;0.20;99.90;;;;;;5132360;27;20411;-80
2024/03/07 06:20:44;;;;;;;0.80;0.80;;;0.00;99.90;;;;;;5106237;27;20521;-81
2024/03/07 06:23:11;;;;;;;0.80;0.80;;;0.30;99.90;;;;;;5132620;27;20035;-80
2024/03/07 06:25:47;;;;;;;0.75;0.75;;;0.80;99.90;;;;;;5093939;27;20107;-83
2024/03/07 06:28:13;;;;;;;0.85;0.85;;;2.00;99.90;;;;;;5110082;27;20040;-82
2024/03/07 06:30:46;;;;;;;0.70;0.70;;;0.60;99.90;;;;;;5101865;27;20036;-80
2024/03/07 06:33:13;;;;;;;0.80;0.80;;;0.10;99.90;;;;;;5096758;27;20028;-79
2024/03/07 06:35:39;;;;;;;0.70;0.70;;;0.80;99.90;;;;;;5121286;27;20345;-81
2024/03/07 06:38:11;;;;;;;0.80;0.80;;;0.80;99.90;;;;;;5132035;27;20397;-83
2024/03/07 06:40:48;;;;;;;1.33;1.33;;;1.20;99.90;;;;;;5122853;27;20047;-78
2024/03/07 06:43:14;;;;;;;1.08;1.08;;;2.00;99.90;;;;;;5126134;27;20032;-81
2024/03/07 06:45:41;;;;;;;0.80;0.80;;;1.00;99.90;;;;;;5126527;27;20051;-81
2024/03/07 06:48:08;;;;;;;0.70;0.70;;;0.90;99.90;;;;;;5100992;27;20051;-81
2024/03/07 06:50:37;;;;;;;0.73;0.73;;;1.10;99.90;;;;;;5129942;27;20092;-80
2024/03/07 06:53:06;;;;;;;0.73;0.73;;;1.10;99.90;;;;;;5127314;27;20044;-82
2024/03/07 06:55:34;;;;;;;1.30;1.20;;;1.20;99.90;;;;;;5133041;27;20092;-80
2024/03/07 06:58:00;;;;;;;1.60;1.33;;;1.20;99.90;;;;;;5084892;27;20035;-82
2024/03/07 07:00:26;;;;;;;;;;;2.20;99.90;;;;;;5125249;27;20043;-82
2024/03/07 07:02:55;;;;;;;0.80;0.80;;;1.20;99.90;;;;;;5121508;27;19916;-82
2024/03/07 07:05:21;;;;;;;1.02;1.02;;;1.20;99.90;;;;;;5103459;27;20360;-81
2024/03/07 07:07:48;;;;;;;2.20;1.70;;;1.20;99.90;;;;;;5107316;27;20047;-82
2024/03/07 07:10:23;;;;;;;0.50;0.50;;;1.30;99.90;;;;;;5120132;27;20388;-80
2024/03/07 07:12:51;;;;;;;0.75;0.75;;;1.30;99.90;;;;;;5134980;27;20040;-80
2024/03/07 07:15:20;;;;;;;0.70;0.70;;;1.40;99.90;;;;;;5126267;27;20065;-79
2024/03/07 07:17:48;;;;;;;0.73;0.73;;;1.40;99.90;;;;;;5133544;27;20058;-82
2024/03/07 07:20:15;;;;;;;0.80;0.80;;;1.40;99.90;;;;;;5110158;27;20043;-81
2024/03/07 07:22:42;;;;;;;0.70;0.70;;;1.40;99.90;;;;;;5113731;27;20038;-79
2024/03/07 07:25:15;;;;;;;0.60;0.60;;;1.40;99.90;;;;;;5113231;27;20043;-83
2024/03/07 07:27:49;;;;;;;0.75;0.75;;;1.40;99.90;;;;;;5112133;27;20440;-82
2024/03/07 07:30:17;;;;;;;1.83;1.70;;;1.50;99.90;;;;;;5132140;27;20116;-80
2024/03/07 07:32:45;;;;;;;1.42;1.40;;;1.50;99.90;;;;;;5110680;27;20039;-83
2024/03/07 07:35:11;;;;;;;0.90;0.90;;;1.50;99.90;;;;;;5107305;27;20041;-81
2024/03/07 07:37:53;;;;;;;0.70;0.70;;;-0.30;99.90;;;;;;5139505;27;20074;-78
2024/03/07 07:40:22;;;;;;;0.70;0.70;;;1.60;99.90;;;;;;5113744;27;20502;-79
2024/03/07 07:42:51;;;;;;;0.80;0.80;;;1.60;99.90;;;;;;5107279;27;20095;-78
2024/03/07 07:45:18;;;;;;;0.80;0.80;;;1.70;99.90;;;;;;5099694;27;20050;-78
2024/03/07 07:47:46;;;;;;;0.70;0.70;;;1.70;99.90;;;;;;5081715;27;20050;-82
2024/03/07 07:50:14;;;;;;;1.15;1.15;;;1.70;99.90;;;;;;5094570;27;20036;-76
2024/03/07 07:52:43;;;;;;;0.57;0.57;;;1.80;99.90;;;;;;5091879;27;20077;-76
2024/03/07 07:55:15;;;;;;;0.60;0.60;;;2.40;99.90;;;;;;5111950;27;20039;-83
2024/03/07 07:57:45;;;;;;;0.60;0.60;;;1.80;99.90;;;;;;5121624;27;20049;-83
2024/03/07 08:00:21;;;;;;;0.60;0.60;;;1.80;99.90;;;;;;5141495;27;20089;-81
2024/03/07 08:03:01;;;;;;;0.70;0.70;;;1.90;99.90;;;;;;5093245;27;20031;-80
2024/03/07 08:05:29;;;;;;;0.70;0.70;;;1.90;99.90;;;;;;5096453;27;20080;-83
2024/03/07 08:07:57;;;;;;;0.70;0.70;;;2.10;99.90;;;;;;5137348;27;20555;-81
2024/03/07 08:10:28;;;;;;;0.60;0.60;;;2.00;99.90;;;;;;5121840;27;20054;-83
2024/03/07 08:12:57;;;;;;;0.70;0.70;;;2.00;99.90;;;;;;5080397;27;20074;-82
2024/03/07 08:15:26;;;;;;;0.80;0.80;;;2.00;99.90;;;;;;5085862;27;20062;-82
2024/03/07 08:17:52;;;;;;;0.57;0.57;;;2.00;99.90;;;;;;5095748;27;20027;-83
2024/03/07 08:20:20;;;;;;;0.60;0.60;;;2.00;99.90;;;;;;5100874;27;20498;-82
2024/03/07 08:22:47;;;;;;;0.60;0.60;;;2.00;99.90;;;;;;5082384;28;20027;-82
2024/03/07 08:25:14;;;;;;;0.90;0.90;;;2.10;99.90;;;;;;5084242;27;20139;-81
2024/03/07 08:27:44;;;;;;;0.70;0.70;;;1.10;99.90;;;;;;5112489;27;20449;-83
2024/03/07 08:30:14;;;;;;;0.50;0.50;;;2.10;99.90;;;;;;5100385;27;20040;-85
2024/03/07 08:32:54;;;;;;;0.65;0.65;;;2.50;99.90;;;;;;5090262;28;20562;-81
2024/03/07 08:35:20;;;;;;;0.70;0.70;;;2.30;99.90;;;;;;5081972;27;20118;-80
2024/03/07 08:37:52;;;;;;;0.70;0.70;;;2.30;99.90;;;;;;5104223;28;20532;-82
2024/03/07 08:40:19;;;;;;;0.60;0.60;;;2.50;99.90;;;;;;5092820;28;20059;-84
2024/03/07 08:42:50;;;;;;;0.60;0.60;;;2.40;99.90;;;;;;5090036;28;20047;-81
2024/03/07 08:45:18;;;;;;;0.63;0.63;;;2.40;99.90;;;;;;5087989;28;20036;-84
2024/03/07 08:47:47;;;;;;;0.60;0.60;;;2.40;99.90;;;;;;5124950;27;20046;-82
2024/03/07 08:50:14;;;;;;;0.68;0.68;;;2.40;99.90;;;;;;5095474;28;20031;-82
2024/03/07 08:52:40;;;;;;;1.10;1.10;;;2.40;99.90;;;;;;5101454;27;20071;-82
2024/03/07 08:55:10;;;;;;;1.15;1.15;;;2.60;99.90;;;;;;5091046;27;20098;-85
2024/03/07 08:57:36;;;;;;;1.50;1.40;;;2.50;99.90;;;;;;5096698;27;20089;-83
2024/03/07 09:00:08;;;;;;;;;;;2.60;99.90;;;;;;5097870;27;20031;-83
2024/03/07 09:02:34;;;;;;;0.60;0.60;;;2.60;99.90;;;;;;5105056;27;19916;-82
2024/03/07 09:05:04;;;;;;;0.60;0.60;;;2.60;99.90;;;;;;5074002;27;20035;-81
2024/03/07 09:07:30;;;;;;;0.60;0.60;;;2.60;99.90;;;;;;5095470;28;20051;-82
2024/03/07 09:09:56;;;;;;;0.93;0.93;;;2.60;99.90;;;;;;5100290;27;20048;-83
2024/03/07 09:12:23;;;;;;;0.63;0.63;;;2.80;99.90;;;;;;5096597;27;20115;-84
2024/03/07 09:14:49;;;;;;;0.60;0.60;;;2.60;99.90;;;;;;5103404;27;20104;-80
2024/03/07 09:17:16;;;;;;;1.50;1.45;;;4.00;99.90;;;;;;5070509;27;20387;-85
2024/03/07 09:19:42;;;;;;;0.65;0.65;;;2.70;99.90;;;;;;5105336;27;20043;-83
2024/03/07 09:22:08;;;;;;;;;;;2.90;99.90;;;;;;5101151;27;20117;-82
2024/03/07 09:24:34;;;;;;;0.60;0.60;;;3.20;99.90;;;;;;5108022;27;19915;-81
2024/03/07 09:27:00;;;;;;;1.30;1.25;;;2.80;99.90;;;;;;5108617;27;20071;-82
2024/03/07 09:29:27;;;;;;;1.27;1.20;;;2.90;99.90;;;;;;5099915;27;20057;-82
2024/03/07 09:31:54;;;;;;;0.50;0.50;;;2.90;99.90;;;;;;5101566;27;20036;-81
2024/03/07 09:34:21;;;;;;;0.50;0.50;;;2.90;99.90;;;;;;5098117;27;20035;-82
2024/03/07 09:36:48;;;;;;;0.73;0.73;;;2.90;99.90;;;;;;5088974;28;20065;-82
2024/03/07 09:39:15;;;;;;;0.60;0.60;;;3.00;99.90;;;;;;5091781;27;20505;-82
2024/03/07 09:41:42;;;;;;;1.15;1.15;;;3.10;99.90;;;;;;5114583;27;20050;-81
2024/03/07 09:44:22;;;;;;;0.55;0.55;;;3.00;99.90;;;;;;5102055;28;20055;-83
2024/03/07 09:46:50;;;;;;;1.30;1.30;;;3.00;99.90;;;;;;5099371;27;20078;-81
2024/03/07 09:49:17;;;;;;;1.15;1.15;;;3.10;99.90;;;;;;5088432;27;20039;-83
2024/03/07 09:51:45;;;;;;;0.68;0.68;;;3.10;99.90;;;;;;5095383;27;20072;-83
2024/03/07 09:54:19;;;;;;;0.60;0.60;;;3.10;99.90;;;;;;5116805;27;20019;-82
2024/03/07 09:56:49;;;;;;;0.70;0.70;;;2.30;99.90;;;;;;5106695;27;20045;-82
2024/03/07 09:59:20;;;;;;;0.88;0.88;;;3.10;99.90;;;;;;5083973;27;20097;-83
2024/03/07 10:01:55;;;;;;;0.70;0.70;;;3.50;99.90;;;;;;5127386;27;20039;-82
2024/03/07 10:04:32;;;;;;;0.60;0.60;;;3.10;99.90;;;;;;5103916;27;20123;-82
2024/03/07 10:06:58;;;;;;;0.60;0.60;;;3.10;99.90;;;;;;5092731;27;20043;-80
2024/03/07 10:09:25;;;;;;;0.90;0.90;;;2.50;99.90;;;;;;5083232;27;20074;-83
2024/03/07 10:12:02;;;;;;;0.63;0.63;;;3.20;99.90;;;;;;5093919;27;20055;-83
2024/03/07 10:14:32;;;;;;;1.42;1.33;;;3.20;99.90;;;;;;5084945;27;20086;-83
2024/03/07 10:16:58;;;;;;;1.88;1.02;;;3.30;99.90;;;;;;5093216;27;20035;-81
2024/03/07 10:19:24;;;;;;;;;;;3.30;99.90;;;;;;5095605;27;20169;-82
2024/03/07 10:21:51;;;;;;;0.60;0.60;;;3.40;99.90;;;;;;5092747;27;19923;-82
2024/03/07 10:24:24;;;;;;;0.50;0.50;;;3.50;99.90;;;;;;5080396;27;20074;-82
2024/03/07 10:26:50;;;;;;;0.60;0.60;;;3.50;99.90;;;;;;5093049;27;20043;-82
2024/03/07 10:29:18;;;;;;;0.63;0.63;;;3.60;99.90;;;;;;5101343;27;20071;-82
2024/03/07 10:31:45;;;;;;;0.98;0.98;;;3.60;99.90;;;;;;5084655;27;20063;-81
2024/03/07 10:34:11;;;;;;;0.80;0.80;;;3.60;99.90;;;;;;5102876;27;20039;-81
2024/03/07 10:36:40;;;;;;;0.52;0.52;;;3.70;99.90;;;;;;5114955;27;20038;-80
2024/03/07 10:39:14;;;;;;;1.13;1.13;;;3.70;99.90;;;;;;5095983;27;20554;-82
2024/03/07 10:41:50;;;;;;;0.60;0.60;;;3.70;99.90;;;;;;5085350;27;20046;-81
2024/03/07 10:44:24;;;;;;;0.60;0.60;;;3.10;99.90;;;;;;5095764;27;20031;-81
2024/03/07 10:46:54;;;;;;;0.70;0.70;;;3.80;99.90;;;;;;5092876;27;20043;-82
2024/03/07 10:49:24;;;;;;;0.70;0.70;;;3.90;99.90;;;;;;5101969;27;20069;-81
2024/03/07 10:52:10;;;;;;;0.60;0.60;;;4.20;99.90;;;;;;5112789;27;20047;-80
2024/03/07 10:54:46;;;;;;;0.60;0.60;;;3.90;99.90;;;;;;5104449;27;20038;-82
2024/03/07 10:57:32;;;;;;;0.55;0.55;;;3.90;99.90;;;;;;5101221;27;20039;-80
2024/03/07 11:00:27;;;;;;;1.08;1.08;;;3.90;99.90;;;;;;5146000;27;20126;-80
2024/03/07 11:02:55;;;;;;;0.82;0.82;;;4.00;99.90;;;;;;5116050;27;20043;-82
2024/03/07 11:05:24;;;;;;;0.60;0.60;;;4.00;99.90;;;;;;5109233;28;20125;-81
2024/03/07 11:07:54;;;;;;;0.75;0.75;;;4.20;99.90;;;;;;5086248;27;20055;-82
2024/03/07 11:10:20;;;;;;;0.95;0.95;;;4.40;99.90;;;;;;5106135;27;20042;-78
2024/03/07 11:12:49;;;;;;;0.95;0.95;;;4.70;99.90;;;;;;5099213;28;20074;-83
2024/03/07 11:15:19;;;;;;;1.17;0.95;;;4.80;99.90;;;;;;5105295;27;20031;-83
2024/03/07 11:17:47;;;;;;;0.57;0.57;;;4.90;99.90;;;;;;5091892;28;20051;-82
2024/03/07 11:20:27;;;;;;;0.60;0.60;;;5.10;99.90;;;;;;5099424;27;20042;-80
2024/03/07 11:22:55;;;;;;;0.70;0.70;;;5.40;99.90;;;;;;5099499;27;20070;-81
2024/03/07 11:25:22;;;;;;;1.23;1.00;;;5.50;99.90;;;;;;5093896;27;20404;-82
2024/03/07 11:27:56;;;;;;;1.38;1.30;;;5.50;99.90;;;;;;5096779;27;20035;-83
2024/03/07 11:30:23;;;;;;;0.50;0.50;;;5.70;99.90;;;;;;5094100;27;20505;-83
2024/03/07 11:32:53;;;;;;;0.95;0.95;;;5.80;99.90;;;;;;5096407;28;20559;-82
2024/03/07 11:35:32;;;;;;;0.50;0.50;;;5.80;99.90;;;;;;5085133;27;20044;-83
2024/03/07 11:37:59;;;;;;;0.82;0.82;;;6.00;99.90;;;;;;5088207;27;20088;-81
2024/03/07 11:40:25;;;;;;;4.03;1.58;;;6.00;99.90;;;;;;5087406;27;20125;-83
2024/03/07 11:42:52;;;;;;;0.50;0.50;;;6.10;99.90;;;;;;5091007;27;20515;-82
2024/03/07 11:45:26;;;;;;;0.70;0.70;;;6.10;99.90;;;;;;5094464;27;20072;-79
2024/03/07 11:48:04;;;;;;;1.00;0.70;;;6.30;99.90;;;;;;5078499;27;20042;-82
2024/03/07 11:50:34;;;;;;;1.52;0.95;;;6.30;99.90;;;;;;5100227;27;20077;-82
2024/03/07 11:53:01;;;;;;;0.50;0.50;;;6.50;99.90;;;;;;5119066;27;20034;-85
2024/03/07 11:55:47;;;;;;;0.50;0.50;;;6.60;99.90;;;;;;5114810;27;20039;-82
2024/03/07 11:58:16;;;;;;;0.52;0.52;;;6.70;99.90;;;;;;5109424;27;20047;-83
2024/03/07 12:00:46;;;;;;;1.33;1.23;;;6.80;99.90;;;;;;5103073;27;20383;-83
2024/03/07 12:03:18;;;;;;;1.23;1.17;;;6.80;99.90;;;;;;5118219;27;20035;-84
2024/03/07 12:05:45;;;;;;;1.17;1.08;;;7.00;99.90;;;;;;5128141;27;20073;-83
2024/03/07 12:08:11;;;;;;;0.75;0.60;;;7.00;99.90;;;;;;5101510;27;20421;-80
2024/03/07 12:10:39;;;;;;;0.50;0.50;;;7.00;99.90;;;;;;5090047;27;20035;-83
2024/03/07 12:13:06;;;;;;;0.40;0.40;;;7.30;99.90;;;;;;5092457;28;20032;-82
2024/03/07 12:15:34;;;;;;;0.40;0.40;;;7.30;99.90;;;;;;5092692;27;20047;-83
2024/03/07 12:18:02;;;;;;;0.50;0.50;;;7.30;99.90;;;;;;5087745;27;20042;-84
2024/03/07 12:20:33;;;;;;;1.00;1.00;;;7.20;99.90;;;;;;5096786;28;20066;-83
2024/03/07 12:23:03;;;;;;;0.77;0.77;;;7.10;99.90;;;;;;5104378;27;20048;-83
2024/03/07 12:25:36;;;;;;;0.40;0.40;;;7.40;99.90;;;;;;5101401;28;20083;-82
2024/03/07 12:28:05;;;;;;;0.65;0.65;;;7.30;99.90;;;;;;5099957;28;20118;-83
2024/03/07 12:30:35;;;;;;;0.93;0.73;;;7.40;99.90;;;;;;5092941;27;20083;-81
2024/03/07 12:33:07;;;;;;;0.55;0.55;;;7.70;99.90;;;;;;5093250;27;20040;-83
2024/03/07 12:35:33;;;;;;;0.40;0.40;;;8.60;99.90;;;;;;5091806;27;20079;-83
2024/03/07 12:37:59;;;;;;;;;;;7.60;99.90;;;;;;5117801;27;20046;-83
2024/03/07 12:40:29;;;;;;;0.50;0.50;;;7.60;99.90;;;;;;5107294;27;19934;-84
2024/03/07 12:42:55;;;;;;;3.15;2.17;;;7.30;99.90;;;;;;5089942;28;20493;-83
2024/03/07 12:45:21;;;;;;;0.40;0.40;;;5.90;99.90;;;;;;5101621;27;20150;-83
2024/03/07 12:47:51;;;;;;;;;;;7.00;99.90;;;;;;5118962;27;20043;-83
2024/03/07 12:50:20;;;;;;;0.93;0.90;;;7.00;99.90;;;;;;5106354;27;20381;-83
2024/03/07 12:52:50;;;;;;;0.60;0.60;;;7.10;99.90;;;;;;5103037;27;20035;-84
2024/03/07 12:55:27;;;;;;;0.60;0.60;;;7.10;99.90;;;;;;5095753;28;20032;-82
2024/03/07 12:57:54;;;;;;;0.60;0.60;;;7.10;99.90;;;;;;5088013;27;20543;-83
2024/03/07 13:00:20;;;;;;;1.00;0.55;;;7.10;99.90;;;;;;5066367;27;20053;-83
2024/03/07 13:02:49;;;;;;;0.50;0.50;;;7.00;99.90;;;;;;5089012;27;20483;-82
2024/03/07 13:05:21;;;;;;;0.80;0.80;;;7.10;99.90;;;;;;5080034;28;20031;-81
2024/03/07 13:07:47;;;;;;;0.77;0.77;;;7.20;99.90;;;;;;5111748;27;20059;-83
2024/03/07 13:10:18;;;;;;;0.60;0.60;;;7.40;99.90;;;;;;5112811;27;20102;-82